Time;durP1;ratioP1;P1;durP2;ratioP2;P2;SDS_P1;SDS_P2;PMS_P1;PMS_P2;Temp;Humidity;BMP_temperature;BMP_pressure;BME280_temperature;BME280_humidity;BME280_pressure;Samples;Min_cycle;Max_cycle;Signal;HPM_P1;HPM_P2
2023/04/17 05:10:13;;;;;;;16.13;10.53;;;7.00;1.00;;;;;;5783122;23;20314;-90
2023/04/17 05:12:41;;;;;;;14.87;10.37;;;7.00;1.00;;;;;;4921748;29;20241;-91
2023/04/17 05:15:09;;;;;;;17.73;9.90;;;7.00;1.00;;;;;;4921630;29;20277;-91
2023/04/17 05:17:36;;;;;;;17.30;11.63;;;7.10;1.00;;;;;;4921475;29;20218;-92
2023/04/17 05:20:05;;;;;;;14.30;10.23;;;7.10;1.00;;;;;;4921650;29;20221;-92
2023/04/17 05:22:32;;;;;;;15.30;10.00;;;7.10;1.00;;;;;;4902593;29;20201;-91
2023/04/17 05:24:59;;;;;;;16.37;10.40;;;7.10;1.00;;;;;;4902279;29;20206;-92
2023/04/17 05:27:27;;;;;;;19.43;10.57;;;7.20;1.00;;;;;;4916609;29;20680;-92
2023/04/17 05:29:54;;;;;;;14.80;10.57;;;7.20;1.00;;;;;;4921365;29;20213;-92
2023/04/17 05:32:21;;;;;;;15.20;10.57;;;7.20;1.00;;;;;;4921712;29;20200;-91
2023/04/17 05:34:48;;;;;;;15.97;10.70;;;7.20;1.00;;;;;;4921131;29;20194;-94
2023/04/17 05:37:14;;;;;;;19.20;11.00;;;7.20;1.00;;;;;;4920965;29;20232;-91
2023/04/17 05:39:41;;;;;;;19.00;11.40;;;7.30;1.00;;;;;;4920758;29;20211;-92
2023/04/17 05:42:08;;;;;;;18.83;10.73;;;7.30;1.00;;;;;;4921056;29;20208;-92
2023/04/17 05:44:36;;;;;;;19.00;11.27;;;7.40;1.00;;;;;;4921425;29;20201;-92
2023/04/17 05:47:03;;;;;;;15.20;9.83;;;7.40;1.00;;;;;;4920910;29;20206;-93
2023/04/17 05:49:30;;;;;;;18.87;11.47;;;7.50;1.00;;;;;;4920936;29;20196;-92
2023/04/17 05:51:56;;;;;;;21.13;12.03;;;7.50;1.00;;;;;;4926879;29;20214;-92
2023/04/17 05:54:23;;;;;;;19.63;12.23;;;7.50;99.90;;;;;;4918564;29;20280;-92
2023/04/17 05:56:50;;;;;;;19.60;11.73;;;7.50;99.90;;;;;;4923314;29;20600;-90
2023/04/17 05:59:17;;;;;;;19.17;11.37;;;7.50;99.90;;;;;;4915193;29;20210;-91
2023/04/17 06:01:45;;;;;;;18.07;11.40;;;7.50;99.90;;;;;;4920743;29;20209;-91
2023/04/17 06:04:12;;;;;;;19.43;10.90;;;7.60;99.90;;;;;;4920696;29;20205;-92
2023/04/17 06:06:39;;;;;;;20.63;13.27;;;7.60;99.90;;;;;;4915264;29;20253;-91
2023/04/17 06:09:07;;;;;;;22.97;12.00;;;7.60;99.90;;;;;;4920690;29;20671;-92
2023/04/17 06:11:34;;;;;;;17.43;11.67;;;7.60;99.90;;;;;;4920296;29;20298;-91
2023/04/17 06:14:01;;;;;;;21.33;11.70;;;7.70;99.90;;;;;;4920273;29;20294;-92
2023/04/17 06:16:28;;;;;;;15.83;10.93;;;7.80;99.90;;;;;;4919964;29;20217;-91
2023/04/17 06:18:56;;;;;;;20.50;11.37;;;7.90;99.90;;;;;;4919907;29;20215;-92
2023/04/17 06:21:23;;;;;;;18.77;11.90;;;7.90;99.90;;;;;;4919823;29;20221;-92
2023/04/17 06:23:50;;;;;;;18.43;12.00;;;7.90;99.90;;;;;;4920289;29;20210;-92
2023/04/17 06:26:17;;;;;;;19.00;12.87;;;7.90;99.90;;;;;;4920152;29;20304;-93
2023/04/17 06:28:44;;;;;;;20.10;11.23;;;7.90;99.90;;;;;;4919851;29;20685;-93
2023/04/17 06:31:11;;;;;;;20.83;11.93;;;7.90;99.90;;;;;;4919872;29;20300;-92
2023/04/17 06:33:38;;;;;;;21.70;11.83;;;7.90;99.90;;;;;;4919986;29;20206;-91
2023/04/17 06:36:07;;;;;;;21.13;11.90;;;7.90;94.50;;;;;;4910329;29;20202;-92
2023/04/17 06:38:34;;;;;;;20.33;12.53;;;7.90;51.80;;;;;;4918494;29;20277;-91
2023/04/17 06:41:00;;;;;;;18.30;12.80;;;7.90;82.10;;;;;;4919770;29;20209;-91
2023/04/17 06:43:27;;;;;;;21.03;12.73;;;7.90;56.60;;;;;;4919888;29;20202;-92
2023/04/17 06:45:54;;;;;;;17.00;11.03;;;7.90;1.00;;;;;;4919598;29;20206;-91
2023/04/17 06:48:21;;;;;;;19.70;12.60;;;7.90;1.00;;;;;;4920004;29;20539;-92
2023/04/17 06:50:48;;;;;;;17.07;12.30;;;7.80;1.00;;;;;;4919333;29;20228;-91
2023/04/17 06:53:16;;;;;;;23.20;12.07;;;7.80;1.00;;;;;;4917938;29;20198;-91
2023/04/17 06:58:18;;;;;;;16.87;11.93;;;7.80;1.00;;;;;;5034298;23;20232;-93
2023/04/17 07:00:45;;;;;;;20.27;12.77;;;7.80;1.00;;;;;;4938102;29;20668;-88
2023/04/17 07:03:13;;;;;;;20.93;13.27;;;7.70;1.00;;;;;;4937635;29;20201;-91
2023/04/17 07:05:40;;;;;;;15.60;10.80;;;7.80;1.00;;;;;;4937860;29;20228;-91
2023/04/17 07:08:07;;;;;;;19.30;12.70;;;7.70;1.00;;;;;;4937865;29;20574;-92
2023/04/17 07:10:36;;;;;;;16.87;11.67;;;7.70;1.00;;;;;;4938097;29;20197;-91
2023/04/17 07:13:03;;;;;;;18.73;12.07;;;7.60;1.00;;;;;;4938512;29;20269;-91
2023/04/17 07:15:30;;;;;;;20.93;13.67;;;7.60;1.00;;;;;;4938139;29;20197;-92
2023/04/17 07:17:57;;;;;;;17.40;10.47;;;7.50;47.30;;;;;;4938135;29;20224;-92
2023/04/17 07:20:24;;;;;;;18.27;11.73;;;7.50;99.90;;;;;;4938259;29;20193;-91
2023/04/17 07:22:51;;;;;;;19.47;12.33;;;7.50;99.90;;;;;;4937905;29;20676;-92
2023/04/17 07:25:18;;;;;;;19.20;13.80;;;7.50;99.90;;;;;;4937603;29;20205;-93
2023/04/17 07:27:47;;;;;;;19.93;12.50;;;7.60;99.90;;;;;;4938004;29;20202;-91
2023/04/17 07:30:14;;;;;;;22.97;12.77;;;7.60;99.90;;;;;;4938159;29;20205;-91
2023/04/17 07:32:41;;;;;;;21.47;13.47;;;7.60;99.90;;;;;;4938234;29;20205;-91
2023/04/17 07:35:08;;;;;;;22.90;13.73;;;7.70;99.90;;;;;;4937862;29;20208;-92
2023/04/17 07:37:35;;;;;;;17.20;10.47;;;7.80;99.90;;;;;;4937967;29;20296;-92
2023/04/17 07:40:09;;;;;;;23.73;14.50;;;7.80;99.90;;;;;;4945775;29;20200;-93
2023/04/17 07:42:36;;;;;;;23.23;13.93;;;7.80;99.90;;;;;;4957245;28;20196;-92
2023/04/17 07:45:05;;;;;;;23.83;13.77;;;7.80;75.90;;;;;;4956866;28;20242;-90
2023/04/17 07:47:32;;;;;;;19.53;12.60;;;7.70;99.90;;;;;;4957292;28;20204;-91
2023/04/17 07:49:59;;;;;;;21.60;13.70;;;7.80;99.90;;;;;;4956982;28;20211;-92
2023/04/17 07:52:26;;;;;;;23.80;13.17;;;7.80;99.90;;;;;;4947045;28;20608;-92
2023/04/17 07:54:53;;;;;;;18.63;12.27;;;7.80;99.90;;;;;;4937664;29;20256;-92
2023/04/17 07:57:21;;;;;;;23.23;15.00;;;7.80;99.90;;;;;;4934358;29;20234;-93
2023/04/17 07:59:48;;;;;;;17.17;9.97;;;7.80;99.90;;;;;;4934394;29;20223;-93
2023/04/17 08:02:16;;;;;;;21.67;13.97;;;7.80;99.90;;;;;;4936767;29;20201;-91
2023/04/17 08:04:43;;;;;;;27.27;15.73;;;7.80;99.90;;;;;;4924413;29;20658;-91
2023/04/17 08:07:11;;;;;;;23.70;13.53;;;7.80;99.90;;;;;;4936752;29;20198;-92
2023/04/17 08:09:38;;;;;;;20.87;14.57;;;7.80;99.90;;;;;;4937160;29;20201;-92
2023/04/17 08:12:06;;;;;;;23.60;14.37;;;7.90;99.90;;;;;;4937345;29;20197;-91
2023/04/17 08:14:33;;;;;;;21.30;14.00;;;7.80;99.90;;;;;;4936096;29;20207;-90
2023/04/17 08:17:00;;;;;;;24.97;16.60;;;7.90;99.90;;;;;;4937183;29;20560;-91
2023/04/17 08:19:29;;;;;;;21.23;12.70;;;7.90;99.90;;;;;;4936648;29;20674;-91
2023/04/17 08:22:02;;;;;;;23.87;13.90;;;7.90;99.90;;;;;;4936717;29;20227;-90
2023/04/17 08:24:30;;;;;;;23.33;15.67;;;8.00;99.90;;;;;;4936811;29;20252;-89
2023/04/17 08:26:57;;;;;;;21.47;15.03;;;8.00;99.90;;;;;;4937065;29;20211;-91
2023/04/17 08:29:24;;;;;;;23.20;14.40;;;8.00;99.90;;;;;;4936562;29;20192;-91
2023/04/17 08:31:51;;;;;;;24.67;15.47;;;8.00;99.90;;;;;;4937239;29;20251;-90
2023/04/17 08:34:18;;;;;;;18.70;12.60;;;8.00;99.90;;;;;;4937201;29;20208;-91
2023/04/17 08:36:46;;;;;;;21.00;14.77;;;8.00;99.90;;;;;;4936788;29;20561;-90
2023/04/17 08:39:15;;;;;;;24.33;15.13;;;8.00;99.90;;;;;;4936963;29;20225;-90
2023/04/17 08:41:49;;;;;;;20.43;13.47;;;8.00;99.90;;;;;;4937315;29;20559;-91
2023/04/17 08:44:19;;;;;;;20.43;11.33;;;8.00;99.90;;;;;;4936610;29;20272;-89
2023/04/17 08:46:46;;;;;;;20.77;13.03;;;7.90;99.90;;;;;;4936113;29;20229;-90
2023/04/17 08:49:14;;;;;;;17.33;11.93;;;8.00;99.90;;;;;;4932599;29;20201;-90
2023/04/17 08:51:41;;;;;;;17.53;11.23;;;8.00;99.90;;;;;;4936928;29;20225;-90
2023/04/17 08:54:10;;;;;;;20.40;13.07;;;8.00;99.90;;;;;;4936565;29;20247;-91
2023/04/17 08:56:37;;;;;;;18.20;13.17;;;8.00;99.90;;;;;;4936644;29;20222;-91
2023/04/17 08:59:04;;;;;;;22.20;15.27;;;8.10;99.90;;;;;;4936612;29;20217;-92
2023/04/17 09:01:33;;;;;;;23.27;14.70;;;8.00;99.90;;;;;;4936810;29;20204;-91
2023/04/17 09:04:00;;;;;;;21.83;14.97;;;8.00;99.90;;;;;;4936802;29;20283;-91
2023/04/17 09:06:28;;;;;;;24.43;14.87;;;8.10;99.90;;;;;;4920320;29;20250;-91
2023/04/17 09:08:57;;;;;;;24.40;15.10;;;8.10;99.90;;;;;;4936829;29;20213;-90
2023/04/17 09:11:26;;;;;;;19.13;13.23;;;8.30;1.00;;;;;;4936436;29;20288;-92
2023/04/17 09:13:53;;;;;;;16.90;11.67;;;8.40;99.90;;;;;;4936665;29;20233;-90
2023/04/17 09:16:20;;;;;;;22.90;16.07;;;8.50;99.90;;;;;;4936833;29;20719;-92
2023/04/17 09:18:48;;;;;;;19.30;11.70;;;8.80;99.90;;;;;;4936355;29;20246;-91
2023/04/17 09:21:17;;;;;;;18.77;13.47;;;9.00;99.90;;;;;;4936450;29;20198;-90
2023/04/17 09:23:49;;;;;;;20.97;13.93;;;9.10;99.90;;;;;;4936826;29;20210;-90
2023/04/17 09:26:18;;;;;;;20.73;14.63;;;9.20;1.00;;;;;;4939097;29;20661;-90
2023/04/17 09:29:04;;;;;;;23.00;14.87;;;9.20;1.00;;;;;;4926020;29;20200;-90
2023/04/17 09:31:33;;;;;;;22.57;14.77;;;9.30;99.90;;;;;;4921003;29;20212;-90
2023/04/17 09:34:01;;;;;;;15.60;10.30;;;9.50;34.90;;;;;;4927940;29;20580;-90
2023/04/17 09:36:30;;;;;;;19.47;13.83;;;9.70;1.00;;;;;;4921026;29;20660;-91
2023/04/17 09:38:58;;;;;;;17.40;12.40;;;9.70;1.00;;;;;;4920969;29;20291;-92
2023/04/17 09:41:27;;;;;;;16.37;11.90;;;9.60;1.00;;;;;;4921212;29;20205;-91
2023/04/17 09:43:55;;;;;;;16.93;10.73;;;9.50;1.00;;;;;;4950476;29;20731;-92
2023/04/17 09:46:36;;;;;;;18.53;12.40;;;9.30;1.00;;;;;;4948634;28;20204;-91
2023/04/17 09:49:13;;;;;;;15.67;9.17;;;9.30;1.00;;;;;;4939665;29;20281;-92
2023/04/17 09:51:41;;;;;;;13.93;9.70;;;9.20;1.00;;;;;;4920730;29;20203;-91
2023/04/17 09:54:10;;;;;;;15.27;11.17;;;9.10;1.00;;;;;;4937298;29;20204;-91
2023/04/17 09:56:37;;;;;;;13.97;9.80;;;8.90;1.00;;;;;;4939689;29;20232;-92
2023/04/17 09:59:05;;;;;;;13.57;10.33;;;8.90;1.00;;;;;;4937426;29;20273;-91
2023/04/17 10:01:35;;;;;;;17.97;11.13;;;8.80;1.00;;;;;;4937616;29;20225;-90
2023/04/17 10:04:04;;;;;;;15.63;11.03;;;8.80;1.00;;;;;;4939170;29;20211;-91
2023/04/17 10:06:32;;;;;;;16.27;10.30;;;8.80;1.00;;;;;;4939186;29;20328;-92
2023/04/17 10:08:59;;;;;;;16.57;11.53;;;8.80;1.00;;;;;;4929706;29;20221;-92
2023/04/17 10:11:30;;;;;;;16.70;11.77;;;8.90;1.00;;;;;;4926184;29;20202;-91
2023/04/17 10:14:10;;;;;;;14.63;10.33;;;8.90;1.00;;;;;;4939169;29;20204;-91
2023/04/17 10:16:40;;;;;;;16.80;11.53;;;9.00;21.30;;;;;;4939377;29;20631;-90
2023/04/17 10:19:28;;;;;;;17.03;12.40;;;9.00;1.00;;;;;;4938981;29;20242;-91
2023/04/17 10:22:39;;;;;;;15.03;11.37;;;9.00;1.00;;;;;;4938918;29;20234;-92
2023/04/17 10:25:23;;;;;;;16.73;11.63;;;9.10;1.00;;;;;;4927826;29;20218;-92
2023/04/17 10:27:57;;;;;;;16.07;10.47;;;9.10;1.00;;;;;;4939038;29;20208;-91
2023/04/17 10:30:25;;;;;;;14.50;11.23;;;9.20;1.00;;;;;;4937894;29;20232;-92
2023/04/17 10:33:29;;;;;;;24.47;11.37;;;9.30;1.00;;;;;;4939221;29;20572;-92
2023/04/17 10:35:57;;;;;;;18.13;12.47;;;9.30;1.00;;;;;;4919825;29;20276;-93
2023/04/17 10:38:35;;;;;;;20.17;12.07;;;9.30;1.00;;;;;;4937401;29;20270;-92
2023/04/17 10:41:04;;;;;;;16.17;12.17;;;9.30;1.00;;;;;;4938752;29;20267;-91
2023/04/17 10:43:31;;;;;;;18.93;12.37;;;9.30;1.00;;;;;;4938756;29;20245;-91
2023/04/17 10:46:02;;;;;;;15.43;9.80;;;9.30;1.00;;;;;;4938743;29;20682;-91
2023/04/17 10:48:33;;;;;;;16.17;11.27;;;9.30;1.00;;;;;;4938668;29;20183;-91
2023/04/17 10:51:22;;;;;;;15.73;11.47;;;9.40;1.00;;;;;;4919856;29;20211;-91
2023/04/17 10:53:50;;;;;;;16.30;11.80;;;9.40;1.00;;;;;;4919711;29;20228;-90
2023/04/17 10:56:19;;;;;;;15.57;10.83;;;9.50;1.00;;;;;;4919667;29;20212;-92
2023/04/17 10:58:57;;;;;;;16.03;11.20;;;9.50;1.00;;;;;;4919710;29;20218;-91
2023/04/17 11:01:26;;;;;;;16.33;11.87;;;9.50;1.00;;;;;;4919595;29;20248;-91
2023/04/17 11:03:53;;;;;;;17.00;12.07;;;9.50;1.00;;;;;;4919781;29;20205;-93
2023/04/17 11:06:22;;;;;;;14.57;11.57;;;9.60;1.00;;;;;;4919912;29;20207;-91
2023/04/17 11:08:50;;;;;;;17.87;12.23;;;9.60;1.00;;;;;;4919615;29;20208;-93
2023/04/17 11:11:18;;;;;;;15.10;11.77;;;9.70;1.00;;;;;;4919427;29;20297;-92
2023/04/17 11:13:48;;;;;;;16.07;12.13;;;9.80;1.00;;;;;;4919466;29;20220;-92
2023/04/17 11:16:15;;;;;;;16.03;11.87;;;9.80;1.00;;;;;;4928012;29;20197;-92
2023/04/17 11:18:43;;;;;;;15.87;11.63;;;9.80;1.00;;;;;;4938418;29;20635;-92
2023/04/17 11:21:11;;;;;;;16.63;11.90;;;9.80;1.00;;;;;;4938043;29;20212;-93
2023/04/17 11:23:40;;;;;;;15.57;11.10;;;9.70;1.00;;;;;;4938584;29;20381;-92
2023/04/17 11:26:07;;;;;;;17.97;11.63;;;9.70;1.00;;;;;;4938491;29;20198;-91
2023/04/17 11:28:35;;;;;;;13.63;10.17;;;9.70;1.00;;;;;;4938229;29;20203;-92
2023/04/17 11:31:03;;;;;;;13.90;10.37;;;9.70;1.00;;;;;;4938174;29;20281;-92
2023/04/17 11:33:36;;;;;;;15.10;11.07;;;9.70;1.00;;;;;;4938204;29;20201;-91
2023/04/17 11:36:05;;;;;;;12.00;8.97;;;9.70;1.00;;;;;;4937963;29;20282;-91
2023/04/17 11:38:33;;;;;;;13.10;10.07;;;9.70;1.00;;;;;;4938255;29;20266;-91
2023/04/17 11:41:02;;;;;;;15.77;11.07;;;9.70;1.00;;;;;;4922649;29;20209;-92
2023/04/17 11:43:30;;;;;;;11.67;9.00;;;9.70;1.00;;;;;;4930213;29;20212;-91
2023/04/17 11:45:58;;;;;;;15.17;10.93;;;9.70;1.00;;;;;;4937706;29;20206;-92
2023/04/17 11:48:27;;;;;;;15.80;10.77;;;9.70;1.00;;;;;;4937378;29;20678;-90
2023/04/17 11:50:56;;;;;;;12.73;9.63;;;9.70;1.00;;;;;;4937780;29;20542;-91
2023/04/17 11:53:23;;;;;;;11.70;8.67;;;9.60;1.00;;;;;;4937858;29;20200;-93
2023/04/17 11:56:13;;;;;;;12.23;8.97;;;9.60;1.00;;;;;;4937746;29;20208;-92
2023/04/17 11:58:48;;;;;;;11.07;8.23;;;9.60;1.00;;;;;;4937660;29;20267;-91
2023/04/17 12:01:15;;;;;;;10.67;8.20;;;9.60;1.00;;;;;;4937387;29;20264;-93
2023/04/17 12:03:42;;;;;;;12.40;9.00;;;9.70;1.00;;;;;;4937437;29;20193;-91
2023/04/17 12:06:10;;;;;;;11.37;8.43;;;9.60;1.00;;;;;;4936663;29;20212;-92
2023/04/17 12:08:45;;;;;;;12.40;9.87;;;9.60;1.00;;;;;;4918703;29;20244;-91
2023/04/17 12:11:22;;;;;;;11.67;8.67;;;9.50;1.00;;;;;;4918313;29;20204;-91
2023/04/17 12:13:49;;;;;;;11.50;8.93;;;9.40;1.00;;;;;;4918742;29;20187;-91
2023/04/17 12:16:16;;;;;;;11.70;9.10;;;9.30;1.00;;;;;;4928150;29;20271;-92
2023/04/17 12:18:44;;;;;;;12.37;8.83;;;9.30;1.00;;;;;;4937325;29;20224;-92
2023/04/17 12:21:11;;;;;;;9.90;7.50;;;9.30;1.00;;;;;;4937527;29;20295;-91
2023/04/17 12:23:38;;;;;;;13.80;8.53;;;9.30;1.00;;;;;;4937165;29;20255;-92
2023/04/17 12:26:05;;;;;;;10.73;7.73;;;9.30;1.00;;;;;;4936934;29;20203;-91
2023/04/17 12:28:34;;;;;;;11.77;9.30;;;9.30;1.00;;;;;;4937298;29;20239;-91
2023/04/17 12:31:01;;;;;;;11.97;9.33;;;9.30;1.00;;;;;;4937430;29;20236;-91
2023/04/17 12:33:28;;;;;;;11.93;8.57;;;9.30;1.00;;;;;;4937431;29;20204;-92
2023/04/17 12:35:55;;;;;;;8.83;7.07;;;9.30;1.00;;;;;;4937104;29;20200;-92
2023/04/17 12:38:23;;;;;;;10.77;8.10;;;9.40;1.00;;;;;;4936890;29;20204;-91
2023/04/17 12:40:50;;;;;;;12.37;8.87;;;9.40;1.00;;;;;;4937244;29;20265;-91
2023/04/17 12:43:17;;;;;;;12.23;7.97;;;9.40;1.00;;;;;;4937000;29;20655;-92
2023/04/17 12:45:45;;;;;;;12.03;7.90;;;9.50;52.50;;;;;;4937323;29;20198;-92
2023/04/17 12:48:14;;;;;;;11.10;8.17;;;9.60;4.50;;;;;;4937092;29;20275;-92
2023/04/17 12:50:42;;;;;;;11.93;8.73;;;9.60;1.00;;;;;;4921841;29;20208;-91
2023/04/17 12:53:11;;;;;;;14.57;8.63;;;9.70;1.00;;;;;;4934545;29;20271;-92
2023/04/17 12:55:39;;;;;;;11.63;9.27;;;9.80;1.00;;;;;;4937249;29;20205;-91
2023/04/17 12:58:07;;;;;;;11.90;8.30;;;9.80;1.00;;;;;;4937063;29;20233;-92
2023/04/17 13:00:34;;;;;;;11.17;8.43;;;9.80;1.00;;;;;;4938274;29;20286;-91
2023/04/17 13:03:02;;;;;;;10.13;6.80;;;9.80;1.00;;;;;;4941031;29;20217;-92
2023/04/17 13:05:29;;;;;;;9.07;6.13;;;9.80;1.00;;;;;;4940932;29;20616;-93
2023/04/17 13:07:57;;;;;;;11.63;8.00;;;9.80;1.00;;;;;;4925740;29;20245;-91
2023/04/17 13:10:24;;;;;;;11.27;7.77;;;9.70;1.00;;;;;;4930473;29;20194;-92
2023/04/17 13:12:51;;;;;;;7.67;6.20;;;9.80;1.00;;;;;;4933983;29;20216;-92
2023/04/17 13:15:18;;;;;;;10.57;7.60;;;9.80;1.00;;;;;;4923296;29;20231;-92
2023/04/17 13:17:45;;;;;;;9.17;6.63;;;9.80;1.00;;;;;;4940413;29;20564;-92
2023/04/17 13:20:14;;;;;;;8.27;7.23;;;9.80;1.00;;;;;;4940407;29;20342;-92
2023/04/17 13:22:41;;;;;;;9.50;6.90;;;9.90;1.00;;;;;;4940296;29;20198;-91
2023/04/17 13:25:09;;;;;;;9.57;7.27;;;10.00;1.00;;;;;;4940412;29;20232;-92
2023/04/17 13:27:36;;;;;;;10.13;7.40;;;10.10;1.00;;;;;;4940055;29;20253;-92
2023/04/17 13:30:04;;;;;;;9.37;7.23;;;10.20;1.00;;;;;;4940395;29;20209;-91
2023/04/17 13:32:33;;;;;;;9.03;7.20;;;10.30;1.00;;;;;;4940247;29;20265;-91
2023/04/17 13:35:00;;;;;;;8.87;6.00;;;10.40;1.00;;;;;;4940146;29;20197;-91
2023/04/17 13:37:29;;;;;;;8.60;6.50;;;10.40;1.00;;;;;;4940485;29;20225;-92
2023/04/17 13:39:56;;;;;;;8.67;7.03;;;10.40;1.00;;;;;;4940238;29;20281;-92
2023/04/17 13:42:23;;;;;;;10.10;7.27;;;10.40;1.00;;;;;;4940006;29;20256;-92
2023/04/17 13:44:50;;;;;;;8.17;6.10;;;10.40;1.00;;;;;;4939933;29;20211;-92
2023/04/17 13:47:16;;;;;;;9.57;6.77;;;10.50;1.00;;;;;;4922656;29;20235;-92
2023/04/17 13:49:43;;;;;;;8.10;7.10;;;10.50;99.90;;;;;;4921319;29;20211;-93
2023/04/17 13:52:10;;;;;;;6.27;4.77;;;10.60;99.90;;;;;;4921489;29;20282;-91
2023/04/17 13:54:40;;;;;;;6.80;5.70;;;10.60;99.90;;;;;;4938768;29;20198;-93
2023/04/17 13:57:08;;;;;;;8.63;6.67;;;10.60;99.90;;;;;;4939329;29;20258;-92
2023/04/17 13:59:35;;;;;;;7.30;5.77;;;10.60;1.00;;;;;;4939719;29;20326;-91
2023/04/17 14:02:02;;;;;;;8.00;6.10;;;10.70;99.90;;;;;;4939545;29;20201;-92
2023/04/17 14:04:30;;;;;;;8.90;6.23;;;10.70;1.00;;;;;;4939562;29;20618;-91
2023/04/17 14:06:57;;;;;;;7.53;6.00;;;10.80;99.90;;;;;;4939600;29;20201;-92
2023/04/17 14:09:24;;;;;;;6.97;5.57;;;10.80;99.90;;;;;;4939425;29;20246;-90
2023/04/17 14:11:53;;;;;;;6.33;5.30;;;10.80;99.90;;;;;;4938036;29;20286;-92
2023/04/17 14:14:20;;;;;;;6.20;4.80;;;10.80;99.90;;;;;;4926809;29;20200;-92
2023/04/17 14:16:48;;;;;;;6.70;5.73;;;10.80;99.90;;;;;;4933790;29;20204;-93
2023/04/17 14:19:15;;;;;;;6.73;5.03;;;10.90;99.90;;;;;;4939550;29;20668;-94
2023/04/17 14:21:42;;;;;;;5.40;4.60;;;10.90;99.90;;;;;;4939621;29;20206;-91
2023/04/17 14:24:09;;;;;;;6.27;5.10;;;10.90;99.90;;;;;;4939414;29;20203;-93
2023/04/17 14:26:37;;;;;;;7.93;5.37;;;11.00;99.90;;;;;;4920349;29;20200;-92
2023/04/17 14:29:05;;;;;;;5.80;5.13;;;11.00;99.90;;;;;;4935567;29;20223;-92
2023/04/17 14:31:32;;;;;;;5.53;4.13;;;11.10;58.30;;;;;;4939313;29;20200;-92
2023/04/17 14:33:59;;;;;;;6.97;5.40;;;11.20;1.00;;;;;;4939174;29;20200;-92
2023/04/17 14:36:26;;;;;;;5.83;4.80;;;11.20;1.00;;;;;;4939317;29;20199;-93
2023/04/17 14:38:53;;;;;;;6.13;5.00;;;11.10;6.20;;;;;;4938934;29;20260;-93
2023/04/17 14:41:20;;;;;;;6.47;5.73;;;11.20;1.00;;;;;;4939586;29;20215;-94
2023/04/17 14:43:47;;;;;;;6.20;5.03;;;11.20;1.00;;;;;;4938966;29;20203;-92
2023/04/17 14:46:16;;;;;;;7.37;5.67;;;11.30;99.90;;;;;;4938653;29;20268;-91
2023/04/17 14:48:43;;;;;;;5.43;4.33;;;11.40;1.00;;;;;;4938903;29;20200;-91
2023/04/17 14:51:13;;;;;;;7.30;5.03;;;11.50;1.00;;;;;;4939372;29;20199;-92
2023/04/17 14:53:40;;;;;;;4.80;4.27;;;11.50;1.00;;;;;;4938897;29;20204;-90
2023/04/17 14:56:08;;;;;;;6.10;4.97;;;11.70;1.00;;;;;;4938755;29;20211;-91
2023/04/17 14:58:35;;;;;;;5.70;4.50;;;11.80;1.00;;;;;;4927725;29;20218;-90
2023/04/17 15:01:02;;;;;;;4.73;3.50;;;12.00;99.90;;;;;;4926257;29;20284;-92
2023/04/17 15:03:31;;;;;;;5.50;4.10;;;11.90;99.90;;;;;;4939041;29;20202;-92
2023/04/17 15:06:00;;;;;;;4.80;4.17;;;11.90;99.90;;;;;;4938470;29;20360;-91
2023/04/17 15:08:27;;;;;;;5.37;4.33;;;11.90;99.90;;;;;;4938637;29;20211;-91
2023/04/17 15:10:54;;;;;;;5.33;4.50;;;11.80;99.90;;;;;;4938482;29;20732;-93
2023/04/17 15:13:21;;;;;;;5.57;4.17;;;11.80;99.90;;;;;;4938730;29;20208;-92
2023/04/17 15:15:48;;;;;;;4.17;3.77;;;11.70;99.90;;;;;;4937967;29;20727;-92
2023/04/17 15:18:15;;;;;;;5.00;3.70;;;11.60;99.90;;;;;;4938481;29;20255;-92
2023/04/17 15:20:43;;;;;;;4.50;3.77;;;11.60;99.90;;;;;;4938273;29;20223;-92
2023/04/17 15:23:10;;;;;;;4.73;3.77;;;11.60;99.90;;;;;;4936669;29;20201;-90
2023/04/17 15:25:37;;;;;;;4.87;3.50;;;11.50;99.90;;;;;;4937340;29;20199;-92
2023/04/17 15:28:04;;;;;;;5.23;3.60;;;11.50;99.90;;;;;;4937865;29;20204;-92
2023/04/17 15:30:31;;;;;;;3.90;3.50;;;11.40;99.90;;;;;;4937782;29;20189;-92
2023/04/17 15:32:58;;;;;;;3.80;3.00;;;11.40;99.90;;;;;;4937681;29;20196;-93
2023/04/17 15:35:25;;;;;;;3.83;3.43;;;11.30;99.90;;;;;;4937682;29;20199;-92
2023/04/17 15:37:53;;;;;;;4.53;3.50;;;11.30;1.00;;;;;;4937056;29;20196;-91
2023/04/17 15:40:20;;;;;;;4.13;3.10;;;11.20;1.00;;;;;;4936369;29;20215;-90
2023/04/17 15:42:47;;;;;;;4.07;3.50;;;11.10;99.90;;;;;;4932446;29;20240;-91
2023/04/17 15:45:14;;;;;;;5.20;3.10;;;11.10;1.00;;;;;;4919428;29;20260;-91
2023/04/17 15:47:41;;;;;;;5.60;3.50;;;11.10;1.00;;;;;;4936350;29;20257;-91
2023/04/17 15:50:09;;;;;;;4.17;3.37;;;11.20;1.00;;;;;;4936754;29;20200;-91
2023/04/17 15:52:36;;;;;;;4.30;3.33;;;11.40;1.00;;;;;;4936503;29;20203;-92
2023/04/17 15:55:05;;;;;;;4.20;3.60;;;11.50;99.90;;;;;;4936162;29;20198;-92
2023/04/17 15:57:35;;;;;;;3.47;2.83;;;11.50;99.90;;;;;;4935490;29;20235;-90
2023/04/17 16:00:02;;;;;;;3.07;2.73;;;11.70;99.90;;;;;;4936642;29;20276;-94
2023/04/17 16:02:31;;;;;;;3.83;3.37;;;11.60;99.90;;;;;;4937171;29;20200;-91
2023/04/17 16:04:57;;;;;;;3.77;3.10;;;11.60;99.90;;;;;;4936920;29;20258;-91
2023/04/17 16:07:24;;;;;;;4.23;3.40;;;11.60;99.90;;;;;;4936737;29;20200;-91
2023/04/17 16:09:51;;;;;;;3.53;3.00;;;11.60;99.90;;;;;;4932055;29;20630;-93
2023/04/17 16:12:20;;;;;;;3.13;2.70;;;11.50;99.90;;;;;;4933914;29;20225;-93
2023/04/17 16:14:47;;;;;;;3.70;2.90;;;11.50;99.90;;;;;;4918612;29;20196;-94
2023/04/17 16:17:14;;;;;;;3.80;3.00;;;11.40;74.60;;;;;;4931353;29;20286;-92
2023/04/17 16:19:41;;;;;;;3.60;3.10;;;11.40;50.30;;;;;;4937166;29;20676;-93
2023/04/17 16:22:08;;;;;;;3.57;3.00;;;11.40;99.90;;;;;;4937248;29;20211;-91
2023/04/17 16:24:35;;;;;;;4.00;2.90;;;11.30;99.90;;;;;;4933862;29;20256;-93
2023/04/17 16:27:03;;;;;;;3.30;2.73;;;11.30;99.90;;;;;;4926096;29;20262;-91
2023/04/17 16:29:31;;;;;;;3.27;2.90;;;11.30;99.90;;;;;;4937103;29;20197;-91
2023/04/17 16:31:58;;;;;;;3.30;2.90;;;11.30;99.90;;;;;;4937221;29;20255;-91
2023/04/17 16:34:25;;;;;;;5.47;3.20;;;11.30;99.90;;;;;;4936885;29;20246;-93
2023/04/17 16:36:52;;;;;;;3.00;2.70;;;11.30;99.90;;;;;;4936835;29;20252;-91
2023/04/17 16:39:20;;;;;;;4.10;2.90;;;11.40;99.90;;;;;;4936766;29;20203;-90
2023/04/17 16:41:47;;;;;;;5.37;2.83;;;11.40;99.90;;;;;;4936858;29;20203;-90
2023/04/17 16:44:14;;;;;;;4.30;2.93;;;11.40;99.90;;;;;;4935320;29;20208;-94
2023/04/17 16:46:42;;;;;;;3.10;2.60;;;11.30;99.90;;;;;;4931662;29;20218;-92
2023/04/17 16:49:10;;;;;;;4.40;2.80;;;11.30;99.90;;;;;;4937256;29;20203;-92
2023/04/17 16:51:38;;;;;;;2.60;2.40;;;11.20;99.90;;;;;;4935677;29;20215;-91
2023/04/17 16:54:05;;;;;;;3.10;2.80;;;11.20;98.20;;;;;;4936822;29;20727;-92
2023/04/17 16:56:32;;;;;;;4.17;3.10;;;11.10;1.00;;;;;;4936455;29;20232;-91
2023/04/17 16:58:58;;;;;;;3.93;2.87;;;11.10;1.00;;;;;;4936428;29;20211;-91
2023/04/17 17:01:25;;;;;;;3.20;2.70;;;11.00;1.00;;;;;;4936235;29;20219;-92
2023/04/17 17:03:54;;;;;;;3.60;2.70;;;10.90;1.00;;;;;;4936231;29;20629;-92
2023/04/17 17:06:21;;;;;;;3.80;2.80;;;10.90;1.00;;;;;;4934233;29;20203;-91
2023/04/17 17:08:48;;;;;;;3.30;3.00;;;10.80;1.00;;;;;;4936640;29;20691;-93
2023/04/17 17:11:16;;;;;;;3.93;3.10;;;10.70;1.00;;;;;;4936579;29;20202;-92
2023/04/17 17:13:46;;;;;;;4.17;2.80;;;10.70;1.00;;;;;;4936326;29;20223;-92
2023/04/17 17:16:13;;;;;;;4.50;3.33;;;10.60;1.00;;;;;;4935505;29;20246;-93
2023/04/17 17:18:40;;;;;;;3.33;2.83;;;10.60;1.00;;;;;;4934071;29;20253;-92
2023/04/17 17:21:09;;;;;;;3.47;3.00;;;10.50;1.00;;;;;;4935829;29;20659;-91
2023/04/17 17:23:36;;;;;;;4.30;2.70;;;10.40;1.00;;;;;;4924895;29;20203;-92
2023/04/17 17:26:04;;;;;;;4.07;3.33;;;10.40;1.00;;;;;;4935780;29;20214;-92
2023/04/17 17:28:31;;;;;;;13.70;3.10;;;10.30;1.00;;;;;;4935990;29;20211;-92
2023/04/17 17:31:01;;;;;;;4.13;3.17;;;10.30;1.00;;;;;;4929580;29;20204;-92
2023/04/17 17:33:28;;;;;;;6.00;3.63;;;10.20;1.00;;;;;;4940542;29;20772;-96
2023/04/17 17:35:55;;;;;;;5.47;4.10;;;10.20;1.00;;;;;;4938857;29;20263;-91
2023/04/17 17:38:27;;;;;;;6.43;4.30;;;10.10;1.00;;;;;;4937326;29;20210;-94
2023/04/17 17:40:54;;;;;;;5.83;3.97;;;10.10;8.10;;;;;;4936819;29;20247;-91
2023/04/17 17:43:21;;;;;;;4.93;4.20;;;10.00;1.00;;;;;;4936594;29;20204;-92
2023/04/17 17:45:48;;;;;;;5.37;4.37;;;10.00;20.70;;;;;;4921130;29;20206;-92
2023/04/17 17:48:16;;;;;;;5.27;4.10;;;9.90;75.00;;;;;;4921017;29;20210;-91
2023/04/17 17:50:44;;;;;;;5.00;4.30;;;9.90;96.30;;;;;;4939996;29;20199;-92
2023/04/17 17:53:11;;;;;;;5.97;4.70;;;9.90;99.90;;;;;;4939792;29;20208;-94
2023/04/17 17:55:40;;;;;;;5.63;4.97;;;9.90;49.40;;;;;;4939500;29;20205;-92
2023/04/17 17:58:08;;;;;;;6.63;4.40;;;9.80;99.80;;;;;;4939657;29;20238;-92
2023/04/17 18:00:35;;;;;;;4.97;4.07;;;9.80;99.90;;;;;;4939463;29;20267;-91
2023/04/17 18:03:02;;;;;;;6.03;4.77;;;9.80;93.60;;;;;;4939475;29;20200;-91
2023/04/17 18:05:29;;;;;;;6.90;4.87;;;9.80;81.90;;;;;;4933395;29;20676;-89